Create Custom Reports and Graphics: Custom Report

Latest Observations

MWA Stations

15 Minute Data | America/Los_Angeles
as of 8/31/26 11:25 PM PDT
Station Date Time Temp (°F) RH (%) Dew Pt (°F) Wind Dir (°) Wind Spd (mph) Wind Gust (mph) Solar Rad (W/m2) Pressure (mb) Daily Min Temp (°F) Daily Max Temp (°F) Daily Max Wind (mph) Daily Rain (In) Yest MinT (°F) Yest MaxT (°F) Yest MaxGst (mph) Yest Precip (In) MinBV Day (V)
MWA Office 8/31/26 2315 73.8   4.2 18   7 27.7   11.5 SW | 216 7.9   5.4 15.8   6.6 0   0 1,012.1   2.3 64.1   4.4 91.0   4.3 28.1   0.0 0.00 68.6 95.3 28.1 0.00 12.4   0.0
MWA OPS 8/31/26 2315 71.5   5.6 20   5 28.1   10.3 SSW | 211 8.6   3.0 13.8   2.8 0   0 1,012.2   2.6 69.6   4.6 88.0   5.1 27.8   2.0 0.00 65.0 93.1 25.9 0.00 12.8   0.0
LV-PS 8/31/26 2315 80.5   5.9 18   17 32.8   11.9 WSW | 258 9.4   5.9 16.7   11.0 0   0 1,008.6   0.5 67.5   6.3 95.0   2.8 27.6   5.3 0.00 72.2 97.8 22.4 0.00 12.8   0.0
JV-PS 8/31/26 2315 75.6   2.0 30   3 41.7   3.9 N | 2 3.2   1.7 6.4   3.3 0   0 1,009.7   1.2 62.4   12.2 95.2   2.6 30.7   7.7 0.00 71.0 97.8 23.0 0.00 12.8   0.0
BDVWA 8/31/26 2315 72.6   3.7 30   4 39.5   6.8 WSW | 238 5.1   1.7 9.6   3.9 0   0 1,010.2   1.9 65.3   4.0 89.7   3.8 30.9   0.9 0.00 69.3 93.5 31.8 0.00 12.8   0.0
Newberry Springs 8/31/26 2315 81.0   5.9 22   2 38.1   7.8 N | 355 11.1   4.0 20.2   4.8 0   0 1,009.0   2.3 72.2   6.7 99.8   1.7 28.7   1.8 0.00 78.9 101.5 27.0 0.00 12.9   0.0
Pinon Hills 8/31/26 2315 67.3   4.6 17   19 21.0   22.6 WNW | 283 1.7   3.5 5.3   12.5 0   0 1,011.5   2.3 61.1   1.4 82.4   3.6 28.7   11.8 0.00 62.5 86.0 40.6 0.00 12.9   0.0
Helendale 8/31/26 2315 70.5   6.4 40   0 45.4   5.4 SW | 232 4.6   0.6 9.9   3.1 0   0 1,012.0   2.6 67.2   4.7 95.1   3.4 26.7   2.2 0.00 71.9 98.5 28.9 0.00 12.7   0.0
Lenwood 8/31/26 2315 73.8   4.9 33   2 42.9   5.7 WSW | 244 10.8   5.3 18.8   9.9 0   0 1,011.0   1.9 66.9   4.7 97.5   2.6 31.8   5.7 0.00 71.6 100.1 26.1 0.00 12.8   0.5
Oak Hills 8/31/26 2315 59.2   4.9 73   7 50.5   7.2 SSW | 211 5.7   2.8 11.0   4.8 0   0 1,015.0   3.0 59.2   4.6 82.1   5.8 25.4   0.9 0.00 63.0 87.9 24.6 0.00 12.9   0.0
Pipes Wash Canyon 8/31/26 2315 67.6   8.6 32   6 36.7   2.6 WSW | 255 3.4   0.1 6.6   1.3 0   0 1,010.7   3.6 62.3   5.1 87.5   3.4 23.7   1.1 0.00 67.4 90.9 22.6 0.00 12.8   0.0
Max     81.0 73 50.5 - 11.1 20.2 0 1,015.0 72.2 99.8 31.8 0.00 78.9 101.5 40.6 0.00 12.9
Avg     72.1 30 36.8 - 6.5 12.2 0 1,011.1 - - - - - - - - -
Min     59.2 17 21.0 - 1.7 5.3 0 1,008.6 59.2 82.1 23.7 0.00 62.5 86.0 22.4 0.00 12.4

Latest Observations

Map

15 Minute Data

Rainfall & ETo

MWA Stations

15 Minute Data | America/Los_Angeles
as of 8/31/26 11:25 PM PDT
Station Date Time Latest Rain (In) Daily Rain (In) Yest Precip (In) Month Precip (In) Season Precip (In) Daily ETo (in) Yest ETo (In) 7 Day ETo (in)
MWA Office 8/31/26 2315 0.00 0.00 0.00 0.00 0.00 0.275 0.27 1.84
MWA OPS 8/31/26 2315 0.00 0.00 0.00 0.00 0.00 0.323 0.30 1.99
LV-PS 8/31/26 2315 0.00 0.00 0.00 0.33 0.34 0.288 0.28 1.94
JV-PS 8/31/26 2315 0.00 0.00 0.00 0.06 0.06 0.274 0.30 1.87
BDVWA 8/31/26 2315 0.00 0.00 0.00 0.00 0.00 0.311 0.30 2.12
Newberry Springs 8/31/26 2315 0.00 0.00 0.00 1.97 1.97 0.316 0.33 2.35
Pinon Hills 8/31/26 2315 0.00 0.00 0.00 0.15 0.19 0.253 0.28 1.78
Helendale 8/31/26 2315 0.00 0.00 0.00 0.00 0.00 0.298 0.29 2.13
Lenwood 8/31/26 2315 0.00 0.00 0.00 0.09 0.09 0.329 0.29 2.04
Oak Hills 8/31/26 2315 0.00 0.00 0.00 0.00 0.00 0.246 0.26 1.80
Pipes Wash Canyon 8/31/26 2315 0.00 0.00 0.00 0.00 0.00 0.243 0.25 1.72
Max     0.00 0.00 0.00 1.97 1.97 0.329 0.33 2.35
Avg     0.00 - - - - - - -
Min     0.00 0.00 0.00 0.00 0.00 0.243 0.25 1.72